W K Kellogg Airport
KBTL : now visible

Airfield :











YOU CAN JOIN US ON...

 
LOGIN :

Register | Disclaimer

   EN    FR    IT 

 









Legend :    VFR   Marginal VFR   IFR   Intensive IFR   Very Intensive IFR
Visi :
Ceiling :
>= 8 km
>= 3000ft
5 to 8 km
1000 to 3000 ft
1500m to 5 km
500 to 1000 ft
800 to 1500m
200 to 500 ft
< 800m
< 200 ft
Symbols :   Thunderstorms  Fog  Heavy snow  Heavy precipitations  Wind > 20 kt






- Airport Elevation : 952 ft


KBTL - W K Kellogg

CURRENT METAR :
  • 291139Z AUTO 30010KT 10SM SCT028 M06/M12 A3037 RMK AO2 T10561122

EXPIRED METARs :
  • 291053Z AUTO 30009KT 10SM BKN034 M05/M12 A3035 RMK AO2 SLP291 T10501117
  • 290953Z AUTO 30016G22KT 10SM SCT035 OVC044 M05/M12 A3033 RMK AO2 PK WND 29027/0926 SLP285 T10501122
  • 290853Z AUTO 29018G24KT 10SM OVC045 M04/M13 A3032 RMK AO2 SLP280 T10441128 53025
  • 290753Z AUTO 30015G21KT 10SM BKN039 OVC048 M04/M12 A3029 RMK AO2 SLP272 T10391117
  • 290653Z AUTO 31009KT 10SM OVC050 M03/M12 A3026 RMK AO2 SLP261 T10331117

TAF KBTL
Valid from the 29 at 06:00 until the 01 at 06:00 UTC


290530Z 2906/0106 27006KT P6SM BKN050
FM291200 27006KT P6SM SKC
FM291800 24010KT P6SM FEW080
FM010000 19006KT P6SM SKC
KZAU FIR / North America



MET'MAP, your aeronautical weather chart ! - Copyright ORBIFLY December 2007 - Disclaimer

ORBIFLY MET'MAP TEAM :

Programming & Development : Alexandra Zaïnal
Original concept : Baudouin d'Aumeries
Technical & hardware support : Manuel Goepfert
Assistance : Marc-Olivier Méhu




SOURCES & CREDITS :

   NOAA       Earth
Advisory